Pagina principale
METAR-TAF:

METAR-TAF

Aeroporti :

Aeroporto internazionale di Banja Luka

Banja Luka, Bosnia-Erzegovina

latitudine: 44-47N, longitudine: 017-13E, altezza: 156 m

Osservazione

Il bollettino è stato emesso 13 minuti fa, alle 16:00 UTC
Vento 2 kt da sud/sud-ovest
Temperature 13°C
Umidità 72%
Pressione 1019 hPa
Visibilità 10 km o più
nessuna nube inferiore a 1500 m e nessun cumulonembo

METAR: LQBK 231600Z 20002KT CAVOK 13/08 Q1019 NOSIG

Ora: 18:13 (16:13 UTC)

Previsione

Il bollettino è stato emesso 5 ore e 13 minuti fa, alle 11:00 UTC
Previsione valida dal 23 alle 12 UTC al 24 alle 12 UTC
Vento 4 kt da sud-ovest
Visibilità 10 km o più
Poco nuvoloso ad un'altezza di 4000 ft

TAF: LQBK 231100Z 2312/2412 23004KT 9999 FEW040 TX16/2313Z TN09/2405Z

Osservazioni e previsioni meteorologiche di più di 4000 aeroporti (messaggi METAR e TAF).

Le stazioni disponibili sono rappresentate dai dischi gialli e rossi sulla carta.

Puntare il mouse per vedere il nome della stazione.

Clicca sopra per visualizzare le osservazioni e previsioni meteorologiche.

Per cambiare la mappa : fare clic sui pulsanti verdi con una croce nera per ingrandire, il pulsante verde con un trattino per diminuire, o sulla freccia verde per le mappe adiacenti.


METAR-TAF: